Time;durP1;ratioP1;P1;durP2;ratioP2;P2;SDS_P1;SDS_P2;PMS_P1;PMS_P2;Temp;Humidity;BMP_temperature;BMP_pressure;BME280_temperature;BME280_humidity;BME280_pressure;Samples;Min_cycle;Max_cycle;Signal;HPM_P1;HPM_P2
2021/06/22 15:48:36;;;;;;;47.75;9.65;;;;;;;28.69;50.10;98719.23;1792951;79;22981;-60
2021/06/22 15:51:04;;;;;;;52.03;8.55;;;;;;;29.58;48.16;98716.09;1771056;80;20989;-62
2021/06/22 15:53:31;;;;;;;51.08;7.62;;;;;;;30.22;47.53;98709.20;1783108;80;21065;-63
2021/06/22 15:55:58;;;;;;;48.30;7.60;;;;;;;30.62;46.77;98711.95;1784786;80;20895;-62
2021/06/22 15:58:24;;;;;;;46.75;7.03;;;;;;;30.87;46.13;98713.95;1779981;80;20958;-63
2021/06/22 16:00:53;;;;;;;40.63;8.05;;;;;;;31.05;45.77;98713.66;1786154;80;20942;-63
2021/06/22 16:03:19;;;;;;;44.42;8.25;;;;;;;31.19;45.29;98714.88;1779336;80;20974;-63
2021/06/22 16:05:45;;;;;;;50.40;8.98;;;;;;;31.25;45.55;98717.72;1787430;80;21932;-63
2021/06/22 16:08:12;;;;;;;50.23;8.78;;;;;;;31.30;45.08;98714.80;1786498;80;20879;-64
2021/06/22 16:10:39;;;;;;;38.98;7.85;;;;;;;31.35;45.28;98728.94;1784292;80;20976;-64
2021/06/22 16:13:05;;;;;;;36.55;7.65;;;;;;;31.35;45.57;98717.95;1773044;80;21567;-60
2021/06/22 16:16:15;;;;;;;64.00;8.85;;;;;;;31.41;45.50;98719.41;1815419;78;23005;-65
2021/06/22 16:18:42;;;;;;;55.17;8.18;;;;;;;31.39;45.32;98721.09;1772491;80;20894;-55
2021/06/22 16:21:09;;;;;;;49.93;8.58;;;;;;;31.40;45.27;98719.97;1752850;80;21104;-56
2021/06/22 16:23:35;;;;;;;54.18;8.55;;;;;;;31.39;45.34;98715.59;1757993;80;20954;-58
2021/06/22 16:26:02;;;;;;;51.20;8.80;;;;;;;31.35;45.46;98722.06;1788175;80;21552;-58
2021/06/22 16:28:29;;;;;;;57.13;8.83;;;;;;;31.32;45.91;98724.90;1760290;80;21052;-55
2021/06/22 16:30:56;;;;;;;54.18;8.40;;;;;;;31.29;46.12;98721.42;1765922;80;20914;-58
2021/06/22 16:33:22;;;;;;;47.58;8.73;;;;;;;31.26;46.14;98717.94;1788695;80;21069;-56
2021/06/22 16:35:48;;;;;;;53.30;9.65;;;;;;;31.24;46.22;98711.16;1780885;80;20981;-57
2021/06/22 16:38:16;;;;;;;49.88;10.10;;;;;;;31.22;46.31;98719.73;1782934;80;21492;-58
2021/06/22 16:40:42;;;;;;;54.73;8.75;;;;;;;31.20;46.23;98715.13;1775337;80;20982;-55
2021/06/22 16:43:08;;;;;;;44.73;8.10;;;;;;;31.18;46.43;98713.84;1773137;80;21050;-56
2021/06/22 16:45:38;;;;;;;40.55;9.68;;;;;;;31.14;46.92;98715.86;1781449;80;21984;-54
2021/06/22 16:48:08;;;;;;;53.20;9.00;;;;;;;31.11;47.12;98710.19;1773755;80;21034;-54
2021/06/22 16:50:37;;;;;;;54.73;9.55;;;;;;;31.12;47.60;98711.81;1778550;80;21492;-59
2021/06/22 16:53:04;;;;;;;46.20;8.08;;;;;;;31.11;47.82;98711.56;1782613;80;21010;-58
2021/06/22 16:55:31;;;;;;;52.90;9.60;;;;;;;31.02;48.25;98709.39;1769014;80;21425;-57
2021/06/22 16:57:59;;;;;;;53.42;8.53;;;;;;;31.00;48.59;98704.80;1779506;80;21606;-55
2021/06/22 17:00:29;;;;;;;69.40;9.90;;;;;;;30.96;48.89;98703.24;1772730;80;21017;-55
2021/06/22 17:02:57;;;;;;;50.50;8.93;;;;;;;30.93;48.99;98702.51;1779859;80;21109;-57
2021/06/22 17:05:23;;;;;;;71.00;10.03;;;;;;;30.90;48.78;98703.11;1778236;80;21680;-56
2021/06/22 17:07:50;;;;;;;76.97;12.10;;;;;;;30.85;49.42;98695.03;1782760;80;20997;-58
2021/06/22 17:10:16;;;;;;;74.05;12.10;;;;;;;30.82;49.09;98698.42;1775592;80;21087;-58
2021/06/22 17:12:44;;;;;;;57.65;9.90;;;;;;;30.85;49.36;98696.97;1774950;80;21630;-56
2021/06/22 17:15:12;;;;;;;53.70;9.73;;;;;;;30.85;49.24;98699.71;1767113;80;20895;-57
2021/06/22 17:17:40;;;;;;;49.60;9.88;;;;;;;30.84;49.10;98702.23;1766478;80;21053;-57
2021/06/22 17:20:08;;;;;;;54.40;9.20;;;;;;;30.82;49.06;98700.34;1763724;80;20986;-56
2021/06/22 17:22:34;;;;;;;50.92;9.33;;;;;;;30.82;49.16;98708.59;1767391;80;21198;-59
2021/06/22 17:25:03;;;;;;;61.37;10.40;;;;;;;30.81;48.91;98705.62;1774294;80;20939;-60
2021/06/22 17:27:30;;;;;;;63.38;10.30;;;;;;;30.80;48.93;98706.73;1763065;80;20994;-58
2021/06/22 17:29:56;;;;;;;62.05;9.25;;;;;;;30.76;49.07;98705.77;1770323;80;21030;-57
2021/06/22 17:32:23;;;;;;;55.15;10.53;;;;;;;30.75;49.15;98708.26;1756518;80;21002;-54
2021/06/22 17:34:49;;;;;;;57.67;8.83;;;;;;;30.74;49.25;98715.68;1742498;80;21837;-55
2021/06/22 17:37:16;;;;;;;55.50;9.88;;;;;;;30.72;49.39;98716.57;1769697;80;20970;-55
2021/06/22 17:39:43;;;;;;;50.85;10.05;;;;;;;30.69;50.10;98716.42;1761684;80;20939;-57
2021/06/22 17:42:09;;;;;;;52.62;9.25;;;;;;;30.62;50.86;98716.06;1766184;80;21492;-56
2021/06/22 17:44:36;;;;;;;63.52;10.10;;;;;;;30.52;51.64;98715.80;1759658;80;21002;-56
2021/06/22 17:47:04;;;;;;;70.30;11.38;;;;;;;30.47;52.31;98722.26;1770398;80;22915;-57
2021/06/22 17:49:30;;;;;;;75.90;11.08;;;;;;;30.42;52.92;98725.15;1766493;80;21043;-57
2021/06/22 17:51:57;;;;;;;67.45;11.22;;;;;;;30.35;53.25;98723.93;1765503;80;20948;-56
2021/06/22 17:54:23;;;;;;;66.90;11.22;;;;;;;30.26;53.56;98726.66;1766973;80;21650;-56
2021/06/22 17:56:52;;;;;;;59.50;11.08;;;;;;;30.19;53.85;98734.52;1765968;80;21073;-56
2021/06/22 17:59:18;;;;;;;65.97;11.22;;;;;;;30.11;53.96;98729.83;1769987;80;21223;-58
2021/06/22 18:01:45;;;;;;;68.95;12.00;;;;;;;30.07;54.13;98743.91;1735457;80;20978;-55
2021/06/22 18:04:11;;;;;;;76.35;11.03;;;;;;;30.04;54.12;98742.34;1774209;80;21109;-56
2021/06/22 18:06:37;;;;;;;76.47;12.35;;;;;;;29.98;53.88;98744.44;1763713;80;20951;-56
2021/06/22 18:09:04;;;;;;;82.15;11.50;;;;;;;29.94;53.74;98744.80;1756952;80;21630;-57
2021/06/22 18:11:31;;;;;;;73.37;11.50;;;;;;;29.89;53.09;98739.45;1766589;80;21035;-57
2021/06/22 18:13:57;;;;;;;77.15;13.00;;;;;;;29.87;53.89;98745.81;1765413;80;21508;-59
2021/06/22 18:16:24;;;;;;;68.05;11.65;;;;;;;29.79;53.86;98750.69;1759796;80;21073;-56
2021/06/22 18:18:50;;;;;;;71.77;12.18;;;;;;;29.71;54.11;98748.11;1762584;80;20928;-56
2021/06/22 18:21:17;;;;;;;63.15;12.07;;;;;;;29.64;53.96;98752.41;1767912;80;21105;-60
2021/06/22 18:23:47;;;;;;;74.07;10.90;;;;;;;29.56;54.15;98755.34;1763998;80;21155;-58
2021/06/22 18:26:12;;;;;;;75.62;13.35;;;;;;;29.49;53.95;98752.20;1771178;80;20900;-58
2021/06/22 18:28:38;;;;;;;80.85;12.90;;;;;;;29.47;53.96;98764.59;1769114;80;21054;-55
2021/06/22 18:31:05;;;;;;;98.17;14.45;;;;;;;29.39;54.21;98768.89;1760977;80;21033;-57
2021/06/22 18:33:31;;;;;;;99.25;13.98;;;;;;;29.29;54.73;98768.57;1767579;80;20868;-58
2021/06/22 18:35:58;;;;;;;95.07;14.40;;;;;;;29.19;55.19;98774.25;1765295;80;21141;-58
2021/06/22 18:38:24;;;;;;;99.20;16.55;;;;;;;29.08;54.44;98783.80;1759680;80;20974;-59
2021/06/22 18:40:52;;;;;;;96.17;15.40;;;;;;;29.04;54.90;98792.95;1765666;80;21011;-58
2021/06/22 18:43:19;;;;;;;93.42;14.18;;;;;;;28.94;55.34;98796.69;1767213;80;21539;-58
2021/06/22 18:45:45;;;;;;;98.90;13.95;;;;;;;28.88;55.73;98803.97;1761486;80;21041;-60
2021/06/22 18:48:11;;;;;;;94.13;14.25;;;;;;;28.80;56.26;98810.97;1765763;80;21051;-60
2021/06/22 18:50:41;;;;;;;104.32;13.25;;;;;;;28.73;56.99;98814.67;1765412;80;20928;-61
2021/06/22 18:53:09;;;;;;;95.87;14.55;;;;;;;28.66;57.25;98821.09;1758538;80;20994;-55
2021/06/22 18:55:36;;;;;;;93.00;13.50;;;;;;;28.60;57.38;98819.56;1757915;80;21025;-58
2021/06/22 18:58:04;;;;;;;100.58;16.00;;;;;;;28.50;57.97;98823.28;1762445;80;21572;-59
2021/06/22 19:00:33;;;;;;;108.30;16.95;;;;;;;28.40;57.07;98833.05;1759820;80;21182;-55
2021/06/22 19:02:59;;;;;;;119.35;17.12;;;;;;;28.34;54.67;98836.98;1751316;80;21009;-59
2021/06/22 19:05:26;;;;;;;129.78;17.77;;;;;;;28.35;54.14;98846.00;1773476;80;21555;-57
2021/06/22 19:07:52;;;;;;;124.55;19.15;;;;;;;28.34;53.89;98847.13;1764410;80;20983;-57
2021/06/22 19:10:19;;;;;;;134.78;17.65;;;;;;;28.29;53.49;98848.59;1765641;80;21041;-61
2021/06/22 19:12:46;;;;;;;119.50;17.87;;;;;;;28.23;53.64;98851.97;1757300;80;21500;-60
2021/06/22 19:15:13;;;;;;;134.87;18.65;;;;;;;28.17;53.73;98851.79;1761385;80;21129;-60
2021/06/22 19:17:40;;;;;;;116.65;18.73;;;;;;;28.07;54.04;98851.41;1767620;80;20923;-57
2021/06/22 19:20:09;;;;;;;131.43;18.05;;;;;;;28.01;54.41;98841.66;1766887;80;21516;-57
2021/06/22 19:22:35;;;;;;;147.02;18.87;;;;;;;27.98;54.87;98846.33;1737704;80;21519;-58
2021/06/22 19:25:06;;;;;;;106.10;16.55;;;;;;;27.92;55.29;98843.41;1763854;80;21140;-58
2021/06/22 19:27:32;;;;;;;108.80;16.90;;;;;;;27.87;55.71;98855.79;1752072;80;20875;-55
2021/06/22 19:29:59;;;;;;;105.97;15.53;;;;;;;27.84;56.06;98855.59;1742147;80;20935;-59
2021/06/22 19:32:26;;;;;;;112.22;16.62;;;;;;;27.86;56.29;98856.10;1757744;80;21098;-60
2021/06/22 19:34:52;;;;;;;98.37;14.20;;;;;;;27.84;56.53;98863.80;1755152;80;20950;-59
2021/06/22 19:37:20;;;;;;;92.65;14.45;;;;;;;27.84;56.54;98863.80;1768001;80;21800;-59
2021/06/22 19:39:46;;;;;;;94.60;15.65;;;;;;;27.81;56.94;98867.12;1773172;80;21017;-58
2021/06/22 19:42:13;;;;;;;95.85;13.93;;;;;;;27.82;56.88;98864.07;1767349;80;20927;-59
2021/06/22 19:44:40;;;;;;;99.00;14.23;;;;;;;27.81;57.05;98865.75;1767112;80;21010;-58
2021/06/22 19:47:06;;;;;;;82.80;14.05;;;;;;;27.82;57.08;98866.02;1762638;80;20966;-59
2021/06/22 19:49:33;;;;;;;87.25;12.20;;;;;;;27.83;57.13;98870.36;1766516;80;21132;-57
2021/06/22 19:51:59;;;;;;;82.72;12.88;;;;;;;27.82;57.27;98876.38;1772843;80;20959;-59
2021/06/22 19:54:26;;;;;;;84.03;14.38;;;;;;;27.80;57.33;98877.77;1751765;80;20990;-56
2021/06/22 19:56:52;;;;;;;94.42;14.47;;;;;;;27.76;57.62;98884.41;1765772;80;21054;-58
2021/06/22 19:59:19;;;;;;;76.35;12.65;;;;;;;27.70;57.83;98886.13;1764984;80;21025;-58
2021/06/22 20:01:46;;;;;;;80.75;12.82;;;;;;;27.66;58.07;98891.94;1756335;80;21182;-59
2021/06/22 20:04:12;;;;;;;80.95;13.15;;;;;;;27.63;58.24;98903.45;1763181;80;20950;-57
2021/06/22 20:06:38;;;;;;;73.60;12.28;;;;;;;27.60;58.29;98907.59;1751495;80;20962;-56
2021/06/22 20:09:05;;;;;;;72.17;11.57;;;;;;;27.56;58.54;98909.27;1768793;80;20960;-54
2021/06/22 20:11:34;;;;;;;75.47;10.63;;;;;;;27.50;58.67;98911.28;1753217;80;21588;-57
2021/06/22 20:14:01;;;;;;;66.95;10.20;;;;;;;27.47;58.87;98906.95;1737760;80;21925;-60
2021/06/22 20:16:29;;;;;;;62.43;10.65;;;;;;;27.46;59.01;98903.95;1754183;80;21532;-61
2021/06/22 20:18:57;;;;;;;59.40;10.82;;;;;;;27.44;59.05;98903.44;1746041;80;21524;-57
2021/06/22 20:21:23;;;;;;;62.93;9.33;;;;;;;27.42;59.14;98907.02;1777957;80;21129;-58
2021/06/22 20:23:51;;;;;;;52.80;8.98;;;;;;;27.43;59.30;98905.89;1772968;80;21002;-56
2021/06/22 20:26:17;;;;;;;62.90;10.85;;;;;;;27.45;59.21;98900.39;1753442;80;21096;-57
2021/06/22 20:28:45;;;;;;;58.23;9.25;;;;;;;27.48;59.18;98903.09;1775103;80;20970;-59
2021/06/22 20:31:11;;;;;;;71.12;10.45;;;;;;;27.44;59.35;98904.80;1756533;80;21516;-58
2021/06/22 20:33:37;;;;;;;53.85;9.15;;;;;;;27.40;59.49;98903.77;1767811;80;20943;-58
2021/06/22 20:36:07;;;;;;;54.53;9.43;;;;;;;27.38;59.54;98901.84;1784986;80;20979;-59
2021/06/22 20:38:33;;;;;;;58.80;8.83;;;;;;;27.32;59.81;98896.20;1777879;80;21803;-56
2021/06/22 20:41:00;;;;;;;59.60;9.90;;;;;;;27.31;59.86;98897.30;1782821;80;20872;-58
2021/06/22 20:43:27;;;;;;;53.42;9.50;;;;;;;27.27;60.02;98890.23;1766171;80;20908;-56
2021/06/22 20:45:54;;;;;;;40.52;10.25;;;;;;;27.23;60.25;98895.21;1752018;80;21037;-56
2021/06/22 20:48:21;;;;;;;46.37;8.33;;;;;;;27.18;60.48;98894.73;1779390;80;21491;-57
2021/06/22 20:50:50;;;;;;;57.60;8.60;;;;;;;27.13;60.67;98889.88;1782937;80;21968;-58
2021/06/22 20:53:16;;;;;;;55.40;8.65;;;;;;;27.05;61.17;98902.80;1771432;80;20899;-56
2021/06/22 20:55:44;;;;;;;42.53;7.42;;;;;;;26.98;61.59;98909.99;1764431;80;21421;-57
2021/06/22 20:58:11;;;;;;;65.37;9.08;;;;;;;26.93;61.81;98908.69;1754877;80;21060;-56
2021/06/22 21:00:39;;;;;;;55.63;8.93;;;;;;;26.90;61.97;98907.90;1763589;80;20989;-56
2021/06/22 21:03:06;;;;;;;44.00;8.35;;;;;;;26.90;62.06;98909.27;1760124;80;21147;-56
2021/06/22 21:05:32;;;;;;;53.85;8.98;;;;;;;26.88;62.15;98914.20;1745932;80;20855;-55
2021/06/22 21:07:58;;;;;;;59.65;8.53;;;;;;;26.84;62.46;98922.69;1762593;80;20987;-59
2021/06/22 21:10:26;;;;;;;50.43;8.18;;;;;;;26.75;62.87;98921.68;1745828;80;21045;-57
2021/06/22 21:12:53;;;;;;;48.45;8.75;;;;;;;26.64;63.25;98918.23;1762036;80;21000;-55
2021/06/22 21:15:19;;;;;;;54.88;8.25;;;;;;;26.63;63.42;98922.05;1782344;80;21831;-56
2021/06/22 21:17:46;;;;;;;51.53;7.75;;;;;;;26.59;63.65;98917.47;1748164;80;20965;-55
2021/06/22 21:20:13;;;;;;;50.73;7.45;;;;;;;26.58;63.70;98923.47;1743336;81;21018;-55
2021/06/22 21:22:40;;;;;;;36.75;6.67;;;;;;;26.63;63.59;98926.69;1747319;81;21054;-55
2021/06/22 21:25:08;;;;;;;45.52;6.92;;;;;;;26.67;63.43;98927.76;1745096;81;21001;-56
2021/06/22 21:27:34;;;;;;;44.23;6.92;;;;;;;26.68;63.44;98927.45;1739927;82;21126;-56
2021/06/22 21:30:01;;;;;;;42.48;7.20;;;;;;;26.70;63.44;98932.07;1739928;82;21595;-57
2021/06/22 21:32:27;;;;;;;47.67;7.42;;;;;;;26.73;63.48;98934.77;1740189;81;21544;-58
2021/06/22 21:34:55;;;;;;;39.90;7.20;;;;;;;26.67;63.66;98927.76;1756635;81;21006;-56
2021/06/22 21:37:22;;;;;;;37.53;7.10;;;;;;;26.66;63.67;98922.03;1756536;81;20994;-55
2021/06/22 21:39:48;;;;;;;43.80;7.42;;;;;;;26.66;63.68;98928.30;1745311;81;21395;-59
2021/06/22 21:42:14;;;;;;;28.65;5.37;;;;;;;26.71;63.59;98925.52;1756430;81;21105;-56
2021/06/22 21:44:41;;;;;;;29.18;7.58;;;;;;;26.77;63.51;98928.50;1756511;81;20944;-58
2021/06/22 21:47:09;;;;;;;40.20;7.53;;;;;;;26.79;63.42;98931.75;1756614;81;20991;-55
2021/06/22 21:49:35;;;;;;;29.55;6.03;;;;;;;26.81;63.40;98933.63;1743117;81;21616;-55
2021/06/22 21:52:02;;;;;;;35.55;7.45;;;;;;;26.86;63.27;98934.94;1756536;81;21226;-55
2021/06/22 21:54:28;;;;;;;44.55;8.30;;;;;;;26.92;63.10;98934.34;1756556;81;20995;-58
2021/06/22 21:56:55;;;;;;;39.92;7.78;;;;;;;26.95;63.02;98926.40;1756608;81;21450;-56
2021/06/22 21:59:21;;;;;;;32.98;6.75;;;;;;;26.99;62.86;98923.88;1746219;81;21043;-54
2021/06/22 22:01:49;;;;;;;28.52;6.45;;;;;;;27.01;62.77;98923.03;1756588;81;21540;-58
2021/06/22 22:04:15;;;;;;;41.75;6.97;;;;;;;27.01;62.78;98922.25;1748851;81;21155;-55
2021/06/22 22:06:41;;;;;;;37.95;7.95;;;;;;;27.04;62.68;98940.20;1755243;81;20984;-55
2021/06/22 22:09:07;;;;;;;44.30;8.58;;;;;;;27.06;62.66;98948.12;1748495;81;21159;-57
2021/06/22 22:11:36;;;;;;;30.72;6.45;;;;;;;27.07;62.63;98942.91;1751507;81;21544;-58
2021/06/22 22:14:02;;;;;;;41.15;7.33;;;;;;;26.95;62.78;98935.13;1750986;81;20991;-59
2021/06/22 22:16:28;;;;;;;29.80;6.58;;;;;;;26.88;63.05;98939.55;1751677;80;21125;-58
2021/06/22 22:18:54;;;;;;;31.30;6.53;;;;;;;26.91;63.03;98947.71;1760724;80;21513;-58
2021/06/22 22:21:21;;;;;;;32.95;6.70;;;;;;;26.92;63.08;98952.90;1750509;80;21027;-55
2021/06/22 22:23:49;;;;;;;36.25;6.83;;;;;;;26.94;63.13;98956.69;1765180;80;20951;-57
2021/06/22 22:26:15;;;;;;;36.23;7.12;;;;;;;26.99;62.97;98951.17;1742362;80;20979;-56
2021/06/22 22:28:41;;;;;;;49.27;7.40;;;;;;;27.07;62.72;98960.09;1768207;80;21974;-56
2021/06/22 22:31:08;;;;;;;41.10;7.75;;;;;;;27.02;63.00;98967.53;1754222;80;20979;-57
2021/06/22 22:33:34;;;;;;;33.78;7.78;;;;;;;26.79;63.48;98953.58;1742600;80;20936;-58
2021/06/22 22:36:01;;;;;;;32.98;7.15;;;;;;;26.64;63.96;98944.16;1770859;80;20872;-58
2021/06/22 22:38:27;;;;;;;36.55;6.62;;;;;;;26.58;64.22;98928.92;1759662;80;20992;-59
2021/06/22 22:40:53;;;;;;;34.45;6.08;;;;;;;26.61;64.28;98933.81;1770432;80;21209;-58
2021/06/22 22:43:20;;;;;;;30.97;7.60;;;;;;;26.63;64.35;98936.23;1742742;80;20999;-59
2021/06/22 22:45:47;;;;;;;28.98;6.22;;;;;;;26.58;64.37;98940.38;1742399;80;20889;-55
2021/06/22 22:48:14;;;;;;;35.88;7.60;;;;;;;26.52;64.60;98938.25;1757800;80;21068;-55
2021/06/22 22:50:40;;;;;;;37.65;6.97;;;;;;;26.54;64.62;98930.58;1771699;80;21027;-57
2021/06/22 22:53:06;;;;;;;36.73;7.00;;;;;;;26.59;64.56;98929.20;1751966;80;21532;-57
2021/06/22 22:55:32;;;;;;;35.78;9.13;;;;;;;26.64;64.19;98926.97;1774670;80;20915;-55
2021/06/22 22:57:59;;;;;;;32.50;6.70;;;;;;;26.70;63.98;98918.97;1748504;80;21514;-58
2021/06/22 23:00:26;;;;;;;41.02;7.55;;;;;;;26.77;63.71;98907.22;1751335;80;20963;-57
2021/06/22 23:02:52;;;;;;;29.85;6.75;;;;;;;26.81;63.47;98913.71;1742741;80;21484;-54
2021/06/22 23:05:18;;;;;;;31.75;6.37;;;;;;;26.84;63.21;98916.69;1742548;80;21100;-55
2021/06/22 23:07:45;;;;;;;31.87;6.80;;;;;;;26.84;63.08;98916.69;1763169;80;20916;-54
2021/06/22 23:10:11;;;;;;;36.25;7.00;;;;;;;26.91;62.85;98909.50;1762457;80;20939;-59
2021/06/22 23:12:38;;;;;;;35.00;6.92;;;;;;;26.92;62.71;98905.14;1756897;80;21528;-56
2021/06/22 23:15:08;;;;;;;29.80;8.00;;;;;;;26.88;62.77;98900.56;1747419;80;20935;-56
2021/06/22 23:17:34;;;;;;;29.50;6.58;;;;;;;26.79;63.10;98895.46;1763509;79;21115;-58
2021/06/22 23:20:01;;;;;;;29.35;6.75;;;;;;;26.68;63.38;98890.63;1751734;80;20910;-55
2021/06/22 23:22:27;;;;;;;44.98;6.55;;;;;;;26.52;63.76;98885.61;1749463;80;21535;-57
2021/06/22 23:24:54;;;;;;;39.75;6.40;;;;;;;26.30;64.45;98883.38;1749292;80;20910;-55
2021/06/22 23:27:20;;;;;;;37.40;7.03;;;;;;;26.19;64.85;98881.29;1749495;80;20962;-58
2021/06/22 23:29:46;;;;;;;27.85;6.80;;;;;;;26.17;64.92;98871.23;1762741;80;21504;-57
2021/06/22 23:32:13;;;;;;;31.23;6.78;;;;;;;26.10;65.22;98857.06;1751919;80;20954;-58
2021/06/22 23:34:39;;;;;;;27.07;6.62;;;;;;;25.98;65.52;98843.01;1729242;80;21001;-56
2021/06/22 23:37:06;;;;;;;29.02;6.92;;;;;;;25.92;65.82;98825.61;1749214;80;21053;-54
2021/06/22 23:39:32;;;;;;;33.92;7.60;;;;;;;25.90;65.99;98819.09;1749011;80;21033;-57
2021/06/22 23:41:58;;;;;;;45.65;8.78;;;;;;;25.90;65.98;98818.27;1749436;80;21156;-57
2021/06/22 23:44:25;;;;;;;30.23;6.42;;;;;;;25.87;65.98;98830.56;1749278;80;22418;-54
2021/06/22 23:46:52;;;;;;;41.63;7.42;;;;;;;25.87;65.97;98827.83;1751715;80;21040;-54
2021/06/22 23:49:18;;;;;;;33.40;6.97;;;;;;;25.81;65.89;98822.72;1767390;80;20999;-56
2021/06/22 23:51:45;;;;;;;35.35;6.90;;;;;;;25.58;66.08;98826.41;1749277;80;21029;-58
2021/06/22 23:54:11;;;;;;;31.48;6.70;;;;;;;25.29;66.69;98826.84;1749285;80;21787;-57
2021/06/22 23:56:38;;;;;;;33.60;6.78;;;;;;;25.07;67.41;98837.31;1749017;80;20942;-55
2021/06/22 23:59:05;;;;;;;30.23;7.20;;;;;;;24.91;68.22;98842.01;1751659;80;20994;-56
